Time;durP1;ratioP1;P1;durP2;ratioP2;P2;SDS_P1;SDS_P2;PMS_P1;PMS_P2;Temp;Humidity;BMP_temperature;BMP_pressure;BME280_temperature;BME280_humidity;BME280_pressure;Samples;Min_cycle;Max_cycle;Signal;HPM_P1;HPM_P2
2022/10/25 00:02:16;;;;;;;63.63;28.33;;;12.40;99.90;;;;;;5034052;28;20034;-66
2022/10/25 00:04:43;;;;;;;60.25;26.70;;;12.30;99.90;;;;;;5036374;28;20083;-66
2022/10/25 00:07:09;;;;;;;57.88;28.02;;;12.30;99.90;;;;;;5036324;28;20471;-66
2022/10/25 00:09:34;;;;;;;57.60;25.38;;;12.20;99.90;;;;;;5018322;28;20026;-66
2022/10/25 00:12:00;;;;;;;53.35;25.40;;;12.20;99.90;;;;;;5036257;28;20029;-66
2022/10/25 00:14:27;;;;;;;52.83;23.83;;;12.20;99.90;;;;;;5036200;28;20109;-66
2022/10/25 00:16:53;;;;;;;58.00;24.55;;;12.10;99.90;;;;;;5036232;28;20491;-66
2022/10/25 00:19:19;;;;;;;53.40;25.02;;;12.10;99.90;;;;;;5036112;28;20030;-66
2022/10/25 00:21:45;;;;;;;60.80;26.70;;;12.00;99.90;;;;;;5018425;28;20060;-66
2022/10/25 00:24:13;;;;;;;65.18;27.30;;;12.00;99.90;;;;;;5035484;28;20025;-66
2022/10/25 00:26:41;;;;;;;58.88;26.67;;;11.90;99.90;;;;;;5051446;28;20084;-66
2022/10/25 00:29:09;;;;;;;63.22;27.65;;;12.00;99.90;;;;;;5035853;28;20034;-66
2022/10/25 00:31:36;;;;;;;56.53;26.13;;;12.20;99.90;;;;;;5057364;28;20029;-66
2022/10/25 00:34:02;;;;;;;53.85;25.05;;;12.20;99.90;;;;;;5055729;28;20057;-66
2022/10/25 00:36:28;;;;;;;46.42;22.48;;;12.10;99.90;;;;;;5055628;28;20067;-66
2022/10/25 00:38:57;;;;;;;55.88;22.75;;;12.00;99.90;;;;;;5052128;28;20059;-66
2022/10/25 00:41:26;;;;;;;46.33;21.42;;;12.00;99.90;;;;;;5055672;28;20108;-66
2022/10/25 00:43:55;;;;;;;51.58;23.13;;;11.90;99.90;;;;;;5055560;28;20025;-66
2022/10/25 00:46:28;;;;;;;61.30;27.45;;;11.90;99.90;;;;;;5055555;28;20041;-66
2022/10/25 00:49:09;;;;;;;56.15;25.65;;;11.90;99.90;;;;;;5037788;28;20029;-66
2022/10/25 00:51:49;;;;;;;53.70;25.92;;;11.90;99.90;;;;;;5021100;28;20394;-66
2022/10/25 00:54:25;;;;;;;52.95;25.10;;;11.80;99.90;;;;;;5037475;28;20048;-66
2022/10/25 00:56:52;;;;;;;53.20;24.08;;;11.70;99.90;;;;;;5037545;28;20048;-66
2022/10/25 00:59:23;;;;;;;45.05;22.52;;;11.70;99.90;;;;;;5055509;28;20421;-66
2022/10/25 01:01:50;;;;;;;49.55;22.23;;;11.50;99.90;;;;;;5055039;28;20048;-66
2022/10/25 01:04:18;;;;;;;60.40;25.92;;;11.40;99.90;;;;;;5037370;28;20474;-66
2022/10/25 01:06:49;;;;;;;58.95;25.92;;;11.40;99.90;;;;;;5055102;28;20079;-66
2022/10/25 01:09:17;;;;;;;;;;;11.50;99.90;;;;;;5055611;28;20032;-66
2022/10/25 01:11:43;;;;;;;72.03;30.67;;;11.50;99.90;;;;;;5054988;28;19909;-67
2022/10/25 01:14:13;;;;;;;67.78;31.10;;;11.40;99.90;;;;;;5053779;28;20493;-66
2022/10/25 01:16:57;;;;;;;71.40;27.98;;;11.40;99.90;;;;;;5055173;28;20107;-66
2022/10/25 01:19:26;;;;;;;63.47;26.17;;;11.40;99.90;;;;;;5054900;28;20033;-66
2022/10/25 01:22:26;;;;;;;58.38;26.77;;;11.40;99.90;;;;;;5053704;28;20029;-66
2022/10/25 01:25:23;;;;;;;55.10;24.67;;;11.50;99.90;;;;;;5022887;28;20479;-66
2022/10/25 01:28:13;;;;;;;50.88;23.27;;;11.40;99.90;;;;;;5036884;28;20060;-66
2022/10/25 01:31:04;;;;;;;55.70;25.33;;;11.40;99.90;;;;;;5037059;28;20087;-66
2022/10/25 01:33:57;;;;;;;49.47;24.42;;;11.30;99.90;;;;;;5035073;28;20072;-66
2022/10/25 01:36:46;;;;;;;49.05;24.83;;;11.20;99.90;;;;;;5034032;28;20032;-66
2022/10/25 01:39:42;;;;;;;63.85;25.05;;;11.20;99.90;;;;;;5052723;28;20033;-66
2022/10/25 01:42:32;;;;;;;57.75;25.95;;;11.00;99.90;;;;;;5052607;28;20041;-66
2022/10/25 01:45:07;;;;;;;52.05;23.23;;;11.00;99.90;;;;;;5036769;28;20028;-66
2022/10/25 01:48:01;;;;;;;49.60;23.30;;;11.00;99.90;;;;;;5054346;28;20033;-66
2022/10/25 01:50:31;;;;;;;53.58;23.50;;;11.00;99.90;;;;;;5020206;28;20549;-66
2022/10/25 01:52:57;;;;;;;56.80;23.65;;;10.90;99.90;;;;;;5054532;28;20527;-66
2022/10/25 01:55:53;;;;;;;55.25;25.10;;;10.80;99.90;;;;;;5054573;28;20124;-66
2022/10/25 01:58:52;;;;;;;61.42;25.73;;;10.80;99.90;;;;;;5036850;28;20028;-66
2022/10/25 02:01:41;;;;;;;53.17;26.60;;;10.80;99.90;;;;;;5036267;28;20048;-66
2022/10/25 02:04:29;;;;;;;58.28;25.60;;;10.80;99.90;;;;;;5054387;28;20029;-66
2022/10/25 02:07:04;;;;;;;73.22;28.58;;;10.80;99.90;;;;;;5054391;28;20072;-66
2022/10/25 02:09:42;;;;;;;61.13;25.85;;;10.80;99.90;;;;;;5054305;28;20032;-66
2022/10/25 02:12:17;;;;;;;56.85;25.33;;;10.70;99.90;;;;;;5054163;28;20033;-66
2022/10/25 02:15:02;;;;;;;54.22;24.33;;;10.80;99.90;;;;;;5054209;28;20025;-66
2022/10/25 02:17:28;;;;;;;50.63;23.75;;;10.70;99.90;;;;;;5054131;28;20031;-66
2022/10/25 02:19:58;;;;;;;67.82;30.15;;;10.60;99.90;;;;;;5054275;28;20068;-66
2022/10/25 02:22:28;;;;;;;82.53;36.53;;;10.60;99.90;;;;;;5054315;28;20037;-66
2022/10/25 02:24:55;;;;;;;71.07;30.95;;;10.50;99.90;;;;;;5054212;28;20025;-66
2022/10/25 02:27:22;;;;;;;60.88;28.75;;;10.70;99.90;;;;;;5036218;28;20033;-66
2022/10/25 02:29:49;;;;;;;54.95;27.35;;;10.60;99.90;;;;;;5054129;28;20104;-66
2022/10/25 02:32:15;;;;;;;65.63;26.58;;;10.60;99.90;;;;;;5032710;28;20039;-66
2022/10/25 02:34:41;;;;;;;57.65;26.52;;;10.60;99.90;;;;;;5016453;28;20100;-66
2022/10/25 02:37:07;;;;;;;78.60;36.90;;;10.60;99.90;;;;;;5034868;28;20090;-66
2022/10/25 02:39:33;;;;;;;77.32;37.33;;;10.80;99.90;;;;;;5036220;28;20029;-66
2022/10/25 02:42:02;;;;;;;71.22;35.25;;;10.60;99.90;;;;;;5053924;28;20036;-66
2022/10/25 02:44:28;;;;;;;70.63;33.25;;;10.50;99.90;;;;;;5053972;28;20025;-66
2022/10/25 02:46:54;;;;;;;64.97;30.55;;;10.50;99.90;;;;;;5020425;28;20058;-66
2022/10/25 02:49:20;;;;;;;56.95;28.60;;;10.30;99.90;;;;;;5057940;28;20116;-66
2022/10/25 02:51:46;;;;;;;59.42;29.45;;;10.30;99.90;;;;;;5057612;28;20410;-66
2022/10/25 02:54:11;;;;;;;55.17;27.25;;;10.40;99.90;;;;;;5039909;28;20036;-66
2022/10/25 02:56:38;;;;;;;60.22;27.20;;;10.40;99.90;;;;;;5056287;28;20037;-66
2022/10/25 02:59:04;;;;;;;56.42;26.98;;;10.40;99.90;;;;;;5057525;28;20120;-66
2022/10/25 03:01:30;;;;;;;56.63;27.48;;;10.30;99.90;;;;;;5057367;28;20072;-66
2022/10/25 03:03:56;;;;;;;47.95;23.95;;;10.30;99.90;;;;;;5057503;28;20059;-66
2022/10/25 03:06:22;;;;;;;56.47;24.70;;;10.50;99.90;;;;;;5056275;28;20025;-66
2022/10/25 03:08:48;;;;;;;61.95;27.00;;;10.50;99.90;;;;;;5039413;28;20492;-66
2022/10/25 03:11:15;;;;;;;55.78;27.00;;;10.30;99.90;;;;;;5039481;28;20504;-66
2022/10/25 03:13:41;;;;;;;56.78;27.30;;;10.40;99.90;;;;;;5039446;28;20042;-66
2022/10/25 03:16:07;;;;;;;62.03;26.10;;;10.40;99.90;;;;;;5039383;28;20036;-66
2022/10/25 03:18:33;;;;;;;57.28;27.40;;;10.30;99.90;;;;;;5057226;28;20032;-66
2022/10/25 03:21:01;;;;;;;56.00;27.60;;;10.20;99.90;;;;;;5057229;28;20471;-66
2022/10/25 03:23:28;;;;;;;55.88;26.50;;;10.10;99.90;;;;;;5057250;28;20032;-66
2022/10/25 03:25:56;;;;;;;49.17;25.55;;;10.10;99.90;;;;;;5057129;28;20025;-66
2022/10/25 03:28:22;;;;;;;60.53;24.85;;;10.10;99.90;;;;;;5055643;28;20040;-66
2022/10/25 03:30:48;;;;;;;55.30;25.98;;;10.20;99.90;;;;;;5057109;28;20056;-66
2022/10/25 03:33:14;;;;;;;51.72;23.90;;;10.20;99.90;;;;;;5057007;28;20372;-66
2022/10/25 03:35:40;;;;;;;53.63;25.02;;;10.10;99.90;;;;;;5057048;28;20033;-66
2022/10/25 03:38:05;;;;;;;47.17;23.83;;;10.10;99.90;;;;;;5056716;28;20029;-66
2022/10/25 03:40:32;;;;;;;51.92;24.08;;;10.00;99.90;;;;;;5056844;28;20555;-66
2022/10/25 03:42:58;;;;;;;46.53;23.25;;;10.10;99.90;;;;;;5056855;28;20489;-66
2022/10/25 03:45:23;;;;;;;52.00;24.35;;;10.00;99.90;;;;;;5056917;28;20111;-66
2022/10/25 03:47:49;;;;;;;61.63;24.17;;;10.00;99.90;;;;;;5048597;28;20025;-66
2022/10/25 03:50:15;;;;;;;55.55;24.02;;;10.00;99.90;;;;;;5056647;28;20041;-66
2022/10/25 03:52:41;;;;;;;52.00;23.17;;;10.00;99.90;;;;;;5056702;28;20456;-67
2022/10/25 03:55:08;;;;;;;51.30;23.52;;;9.90;99.90;;;;;;5056535;28;20052;-66
2022/10/25 03:57:34;;;;;;;45.53;23.25;;;9.90;99.90;;;;;;5056384;28;20072;-66
2022/10/25 04:00:00;;;;;;;49.00;21.90;;;10.00;99.90;;;;;;5055497;28;20037;-66
2022/10/25 04:02:26;;;;;;;47.72;22.95;;;10.00;99.90;;;;;;5056566;28;20466;-66
2022/10/25 04:04:52;;;;;;;45.90;21.55;;;10.00;99.90;;;;;;5056470;28;20025;-66
2022/10/25 04:07:18;;;;;;;49.00;22.30;;;9.90;99.90;;;;;;5056454;28;20055;-66
2022/10/25 04:09:45;;;;;;;49.95;22.00;;;9.90;99.90;;;;;;5056286;28;20478;-66
2022/10/25 04:12:11;;;;;;;50.17;24.75;;;9.90;99.90;;;;;;5056177;28;20029;-66
2022/10/25 04:14:37;;;;;;;49.42;22.27;;;10.00;99.90;;;;;;5056337;28;20109;-66
2022/10/25 04:17:03;;;;;;;55.90;22.50;;;10.10;99.90;;;;;;5056175;28;20112;-66
2022/10/25 04:19:29;;;;;;;50.42;21.48;;;10.00;99.90;;;;;;5056042;28;20088;-66
2022/10/25 04:21:55;;;;;;;43.83;21.00;;;9.90;99.90;;;;;;5056064;28;20056;-66
2022/10/25 04:24:21;;;;;;;51.20;21.63;;;9.90;99.90;;;;;;5055949;28;20021;-66
2022/10/25 04:26:47;;;;;;;51.88;22.25;;;9.80;99.90;;;;;;5055924;28;20107;-66
2022/10/25 04:29:16;;;;;;;47.75;22.73;;;9.80;99.90;;;;;;5055949;28;20120;-66
2022/10/25 04:31:42;;;;;;;45.95;20.23;;;9.80;99.90;;;;;;5055861;28;20471;-66
2022/10/25 04:34:08;;;;;;;54.95;24.02;;;9.80;99.90;;;;;;5055916;28;20029;-66
2022/10/25 04:36:34;;;;;;;60.05;25.15;;;9.80;99.90;;;;;;5055720;28;20052;-66
2022/10/25 04:39:00;;;;;;;54.28;24.25;;;9.90;99.90;;;;;;5055505;28;20463;-66
2022/10/25 04:41:26;;;;;;;53.40;24.55;;;9.90;99.90;;;;;;5055602;28;20423;-66
2022/10/25 04:43:51;;;;;;;57.45;25.25;;;9.90;99.90;;;;;;5055527;28;20393;-66
2022/10/25 04:46:18;;;;;;;63.90;26.67;;;10.10;99.90;;;;;;5055447;28;20417;-66
2022/10/25 04:48:44;;;;;;;45.13;22.20;;;10.10;99.90;;;;;;5055459;28;20430;-66
2022/10/25 04:51:10;;;;;;;62.33;23.55;;;10.10;99.90;;;;;;5055511;28;20029;-66
2022/10/25 04:53:36;;;;;;;48.00;22.67;;;10.00;99.90;;;;;;5055273;28;20156;-66
2022/10/25 04:56:09;;;;;;;47.35;20.52;;;10.10;99.90;;;;;;5055533;28;20287;-66
2022/10/25 04:58:35;;;;;;;51.03;23.15;;;10.20;99.90;;;;;;5055260;28;20486;-66
2022/10/25 05:01:04;;;;;;;47.17;23.30;;;10.40;99.90;;;;;;5055045;28;20520;-66
2022/10/25 05:03:31;;;;;;;63.13;29.63;;;10.40;99.90;;;;;;5055211;28;20549;-66
2022/10/25 05:06:16;;;;;;;122.25;55.80;;;10.50;99.90;;;;;;5055219;28;20035;-66
2022/10/25 05:08:44;;;;;;;106.40;49.58;;;10.50;99.90;;;;;;5055169;28;20033;-66
2022/10/25 05:11:12;;;;;;;132.05;64.63;;;10.50;99.90;;;;;;5055075;28;20040;-66
2022/10/25 05:13:39;;;;;;;110.15;55.08;;;10.50;99.90;;;;;;5054986;28;20466;-66
2022/10/25 05:16:06;;;;;;;140.25;71.38;;;10.50;99.90;;;;;;5055010;28;20083;-66
2022/10/25 05:18:34;;;;;;;131.50;63.17;;;10.50;99.90;;;;;;5038778;28;20364;-66
2022/10/25 05:21:05;;;;;;;84.40;41.75;;;10.60;99.90;;;;;;5037523;28;20518;-66
2022/10/25 05:23:33;;;;;;;91.47;44.75;;;10.60;99.90;;;;;;5051526;28;20021;-66
2022/10/25 05:26:03;;;;;;;110.93;55.75;;;10.70;99.90;;;;;;5054012;28;20111;-66
2022/10/25 05:28:29;;;;;;;130.25;68.78;;;10.80;99.90;;;;;;5054304;28;20032;-66
2022/10/25 05:30:55;;;;;;;131.73;64.38;;;10.80;99.90;;;;;;5045432;28;20037;-66
2022/10/25 05:33:21;;;;;;;108.10;52.40;;;10.70;99.90;;;;;;5053615;28;20044;-66
2022/10/25 05:35:47;;;;;;;77.65;39.75;;;10.60;99.90;;;;;;5049260;28;20029;-66
2022/10/25 05:38:16;;;;;;;71.18;31.33;;;10.70;99.90;;;;;;5052532;28;20557;-66
2022/10/25 05:40:42;;;;;;;69.22;26.77;;;10.70;99.90;;;;;;5052654;28;20066;-66
2022/10/25 05:43:08;;;;;;;60.70;27.55;;;10.70;99.90;;;;;;5053242;28;20025;-66
2022/10/25 05:45:34;;;;;;;71.35;31.00;;;10.80;99.90;;;;;;5053495;28;20028;-66
2022/10/25 05:48:00;;;;;;;75.03;29.95;;;10.90;99.90;;;;;;5054041;28;20045;-66
2022/10/25 05:50:26;;;;;;;73.30;27.95;;;10.90;99.90;;;;;;5056124;28;20035;-66
2022/10/25 05:52:53;;;;;;;84.30;32.22;;;10.90;99.90;;;;;;5070403;28;20045;-66
2022/10/25 05:55:19;;;;;;;69.70;28.05;;;11.10;99.90;;;;;;5074080;28;20107;-66
2022/10/25 05:57:50;;;;;;;66.70;26.15;;;11.20;99.90;;;;;;5072862;28;20440;-66
2022/10/25 06:00:17;;;;;;;68.90;28.70;;;11.40;99.90;;;;;;5058005;28;20114;-66
2022/10/25 06:02:42;;;;;;;59.13;27.20;;;11.50;99.90;;;;;;5053775;28;20021;-67
2022/10/25 06:05:08;;;;;;;67.68;28.75;;;11.60;99.90;;;;;;5054035;28;20437;-66
2022/10/25 06:07:37;;;;;;;71.75;27.38;;;11.60;99.90;;;;;;5054064;28;20090;-66
2022/10/25 06:10:06;;;;;;;95.45;27.80;;;11.60;99.90;;;;;;5054316;28;20025;-66
2022/10/25 06:12:34;;;;;;;63.20;23.08;;;11.80;99.90;;;;;;5051406;28;20136;-66
2022/10/25 06:15:02;;;;;;;92.05;26.05;;;11.90;99.90;;;;;;5052003;28;20330;-67
2022/10/25 06:17:28;;;;;;;63.10;24.10;;;12.00;99.90;;;;;;5052763;28;20096;-66
2022/10/25 06:19:53;;;;;;;68.75;24.75;;;12.10;99.90;;;;;;5051998;28;20029;-66
2022/10/25 06:22:20;;;;;;;68.47;24.75;;;12.10;99.90;;;;;;5053259;28;20593;-66
2022/10/25 06:24:46;;;;;;;72.85;26.75;;;12.20;99.90;;;;;;5057708;28;20123;-66
2022/10/25 06:27:13;;;;;;;67.30;25.63;;;12.30;99.90;;;;;;5029229;28;20025;-66
2022/10/25 06:29:38;;;;;;;63.88;26.23;;;12.40;99.90;;;;;;5020139;28;20510;-66
2022/10/25 06:32:04;;;;;;;78.13;27.77;;;12.40;99.90;;;;;;5037827;28;20116;-66
2022/10/25 06:34:31;;;;;;;75.35;27.83;;;12.50;99.90;;;;;;5041254;28;20039;-66
2022/10/25 06:37:00;;;;;;;71.38;28.20;;;12.60;99.90;;;;;;5066285;28;20076;-66
2022/10/25 06:39:26;;;;;;;68.90;27.70;;;12.60;99.90;;;;;;5057389;28;20459;-66
2022/10/25 06:41:52;;;;;;;73.25;27.60;;;12.60;99.90;;;;;;5056187;28;20075;-66
2022/10/25 06:44:18;;;;;;;61.80;27.88;;;12.80;99.90;;;;;;5058749;28;20056;-66
2022/10/25 06:46:44;;;;;;;73.30;26.80;;;12.90;99.90;;;;;;5052603;28;20525;-67
2022/10/25 06:49:10;;;;;;;76.13;27.67;;;13.10;99.90;;;;;;5055133;28;20035;-67
2022/10/25 06:51:36;;;;;;;82.82;32.15;;;13.30;99.90;;;;;;5055611;28;20040;-67
2022/10/25 06:54:08;;;;;;;68.40;29.02;;;13.60;99.90;;;;;;5058961;28;20032;-67
2022/10/25 06:56:34;;;;;;;66.75;28.55;;;13.90;99.90;;;;;;5059751;28;20029;-68
2022/10/25 06:59:01;;;;;;;65.38;29.30;;;13.90;99.90;;;;;;5060630;28;20095;-67
2022/10/25 07:01:27;;;;;;;71.80;32.63;;;14.30;99.90;;;;;;5055702;28;20068;-67
2022/10/25 07:03:54;;;;;;;87.05;33.58;;;14.70;99.90;;;;;;5044541;28;20032;-67
2022/10/25 07:06:28;;;;;;;77.95;32.22;;;15.30;99.90;;;;;;5053091;28;20025;-67
2022/10/25 07:08:57;;;;;;;87.00;32.85;;;16.10;99.90;;;;;;5055369;28;20059;-67
2022/10/25 07:11:25;;;;;;;79.97;32.35;;;16.40;99.90;;;;;;5045425;28;20029;-67
2022/10/25 07:13:51;;;;;;;78.22;29.42;;;17.00;99.90;;;;;;5054236;28;20036;-67
2022/10/25 07:16:22;;;;;;;88.72;32.03;;;17.80;99.90;;;;;;5055336;28;20024;-68
2022/10/25 07:18:48;;;;;;;83.38;31.63;;;18.20;99.80;;;;;;5052206;28;20124;-67
2022/10/25 07:21:19;;;;;;;79.18;30.35;;;18.30;99.00;;;;;;5051857;28;20105;-67
2022/10/25 07:23:53;;;;;;;82.18;32.97;;;18.30;99.10;;;;;;5068570;28;20052;-67
2022/10/25 07:26:30;;;;;;;87.80;33.40;;;17.60;99.30;;;;;;5076527;28;20079;-67
2022/10/25 07:28:58;;;;;;;88.13;34.38;;;17.50;99.90;;;;;;5076244;28;20427;-67
2022/10/25 07:31:40;;;;;;;72.50;30.58;;;17.50;99.90;;;;;;5036608;28;20065;-67
2022/10/25 07:34:06;;;;;;;92.95;33.15;;;17.50;99.90;;;;;;5035193;28;20029;-67
2022/10/25 07:36:32;;;;;;;87.13;32.22;;;17.30;99.90;;;;;;5036050;28;20025;-67
2022/10/25 07:39:01;;;;;;;74.95;29.98;;;17.10;99.90;;;;;;5051568;28;20479;-67
2022/10/25 07:41:27;;;;;;;63.88;24.00;;;17.10;99.90;;;;;;5055339;28;20501;-67
2022/10/25 07:43:54;;;;;;;52.00;24.73;;;17.20;99.90;;;;;;5057334;28;20021;-67
2022/10/25 07:46:20;;;;;;;50.70;23.58;;;17.50;99.90;;;;;;5056773;28;20434;-67
2022/10/25 07:48:46;;;;;;;54.45;23.45;;;17.60;99.90;;;;;;5056245;28;20485;-67
2022/10/25 07:51:14;;;;;;;86.40;32.28;;;17.50;99.90;;;;;;5056715;28;20086;-67
2022/10/25 07:53:41;;;;;;;59.80;26.70;;;17.50;99.90;;;;;;5056239;28;20033;-67
2022/10/25 07:56:15;;;;;;;76.65;32.10;;;17.50;99.90;;;;;;5056887;28;20064;-66
2022/10/25 07:58:41;;;;;;;81.28;32.03;;;17.50;99.90;;;;;;5055553;28;20531;-66
2022/10/25 08:01:09;;;;;;;74.20;30.73;;;17.30;99.90;;;;;;5047663;28;20040;-66
2022/10/25 08:03:35;;;;;;;73.20;30.73;;;17.20;99.90;;;;;;5056548;28;20029;-66
2022/10/25 08:06:02;;;;;;;65.05;32.55;;;17.10;99.90;;;;;;5056557;28;20032;-66
2022/10/25 08:08:29;;;;;;;73.55;35.45;;;17.20;99.90;;;;;;5056768;28;20039;-66
2022/10/25 08:10:56;;;;;;;62.95;31.92;;;17.40;99.90;;;;;;5056476;28;20029;-67
2022/10/25 08:13:22;;;;;;;60.55;26.40;;;17.80;99.90;;;;;;5056445;28;20029;-67
2022/10/25 08:15:50;;;;;;;63.22;25.60;;;18.50;99.90;;;;;;5055665;28;20032;-67
2022/10/25 08:18:15;;;;;;;63.05;25.33;;;19.00;99.90;;;;;;5055977;28;20036;-67
2022/10/25 08:20:41;;;;;;;51.25;24.27;;;19.60;99.90;;;;;;5056426;28;20029;-67
2022/10/25 08:23:07;;;;;;;53.47;21.83;;;20.30;99.90;;;;;;5055305;28;20100;-67
2022/10/25 08:25:33;;;;;;;53.55;22.17;;;21.00;96.30;;;;;;5055769;28;20037;-67
2022/10/25 08:27:59;;;;;;;57.58;23.92;;;21.60;95.10;;;;;;5055400;28;20029;-67
2022/10/25 08:30:25;;;;;;;55.42;22.13;;;22.10;91.50;;;;;;5054281;28;20029;-67
2022/10/25 08:32:51;;;;;;;51.10;22.40;;;22.60;90.30;;;;;;5053162;28;20028;-67
2022/10/25 08:35:17;;;;;;;49.90;22.77;;;22.50;86.20;;;;;;5054333;28;20116;-68
2022/10/25 08:37:43;;;;;;;60.10;25.10;;;22.80;83.60;;;;;;5054465;28;20039;-68
2022/10/25 08:40:22;;;;;;;54.97;24.77;;;22.80;82.20;;;;;;5055958;28;20025;-68
2022/10/25 08:43:18;;;;;;;56.17;24.63;;;23.00;78.60;;;;;;5052908;28;20055;-68
2022/10/25 08:45:55;;;;;;;61.30;26.85;;;23.20;79.70;;;;;;5064471;28;20021;-67
2022/10/25 08:48:27;;;;;;;60.40;27.75;;;23.30;78.30;;;;;;5050110;28;20056;-67
2022/10/25 08:50:57;;;;;;;67.13;27.35;;;22.80;79.30;;;;;;5052509;28;20029;-68
2022/10/25 08:53:31;;;;;;;59.85;26.63;;;22.60;79.10;;;;;;5051406;28;20037;-67
2022/10/25 08:55:57;;;;;;;59.17;23.00;;;22.60;79.70;;;;;;5073009;28;20032;-67
2022/10/25 08:58:28;;;;;;;60.95;23.23;;;22.90;78.70;;;;;;5072609;28;20036;-67
2022/10/25 09:00:59;;;;;;;56.38;22.65;;;23.20;78.00;;;;;;5061159;28;20483;-67
2022/10/25 09:03:26;;;;;;;56.88;22.15;;;23.30;73.60;;;;;;5054135;28;20264;-67
2022/10/25 09:06:10;;;;;;;48.78;20.38;;;23.30;75.30;;;;;;5075093;28;20025;-68
2022/10/25 09:09:06;;;;;;;52.00;20.92;;;23.80;73.20;;;;;;5074408;28;20028;-68
2022/10/25 09:11:53;;;;;;;44.88;23.05;;;24.10;70.50;;;;;;5074714;28;20442;-67
2022/10/25 09:14:42;;;;;;;49.20;20.42;;;24.70;69.40;;;;;;5072284;28;20371;-68
2022/10/25 09:17:10;;;;;;;41.72;19.67;;;25.30;65.50;;;;;;5034988;28;20490;-68
2022/10/25 09:20:06;;;;;;;58.08;21.27;;;25.40;64.00;;;;;;5057806;28;20024;-67
2022/10/25 09:23:12;;;;;;;51.65;18.88;;;25.60;63.50;;;;;;5051957;28;20031;-68
2022/10/25 09:25:51;;;;;;;45.55;20.33;;;25.90;60.40;;;;;;5027000;28;20125;-68
2022/10/25 09:28:28;;;;;;;42.90;19.15;;;26.00;61.00;;;;;;5034012;28;20128;-67
2022/10/25 09:30:56;;;;;;;39.53;17.92;;;26.10;60.10;;;;;;5047328;28;20060;-69
2022/10/25 09:33:29;;;;;;;42.10;16.45;;;26.10;61.30;;;;;;5055033;28;20495;-68
2022/10/25 09:35:57;;;;;;;41.97;17.48;;;26.60;59.70;;;;;;5054087;28;20025;-68
2022/10/25 09:38:50;;;;;;;38.25;16.15;;;27.00;57.20;;;;;;5053927;28;20425;-68
2022/10/25 09:41:28;;;;;;;37.15;16.92;;;26.90;57.10;;;;;;5063853;28;20448;-68
2022/10/25 09:44:08;;;;;;;37.33;17.17;;;26.90;56.70;;;;;;5053420;28;20021;-68
2022/10/25 09:46:41;;;;;;;35.88;16.15;;;27.00;57.80;;;;;;5053999;28;20048;-68
2022/10/25 09:49:15;;;;;;;49.28;16.90;;;27.00;57.70;;;;;;5054608;28;20100;-68
2022/10/25 09:52:31;;;;;;;39.95;16.60;;;26.90;57.80;;;;;;5062181;28;20082;-68
2022/10/25 09:55:10;;;;;;;35.00;15.32;;;27.00;58.00;;;;;;4969088;28;20033;-67
2022/10/25 09:57:37;;;;;;;33.53;16.77;;;26.70;57.50;;;;;;4969240;28;20041;-68
2022/10/25 10:00:03;;;;;;;38.85;18.77;;;27.00;57.80;;;;;;4972229;28;20535;-68
2022/10/25 10:02:39;;;;;;;46.53;19.85;;;27.10;58.40;;;;;;4972662;28;20030;-68
2022/10/25 10:05:16;;;;;;;34.33;18.92;;;27.00;57.10;;;;;;4989461;28;20034;-67
2022/10/25 10:07:45;;;;;;;68.15;23.15;;;27.00;56.80;;;;;;4992552;28;20411;-68
2022/10/25 10:10:15;;;;;;;43.80;21.23;;;26.80;58.10;;;;;;4991285;28;20033;-67
2022/10/25 10:12:46;;;;;;;44.58;19.88;;;26.60;57.80;;;;;;4970685;28;20053;-67
2022/10/25 10:15:29;;;;;;;38.67;19.40;;;26.50;58.50;;;;;;4980505;28;20026;-68
2022/10/25 10:18:23;;;;;;;42.35;18.83;;;26.30;58.00;;;;;;4981045;28;20095;-68
2022/10/25 10:21:19;;;;;;;51.72;20.42;;;26.10;60.20;;;;;;4968611;28;20055;-68
2022/10/25 10:23:50;;;;;;;50.63;22.67;;;26.30;59.00;;;;;;4992856;28;20054;-68
2022/10/25 10:26:34;;;;;;;42.97;21.85;;;26.00;59.30;;;;;;5040403;28;20037;-68
2022/10/25 10:29:12;;;;;;;53.17;25.63;;;25.90;60.50;;;;;;5047571;28;20093;-68
2022/10/25 10:31:45;;;;;;;71.03;35.25;;;25.60;61.60;;;;;;5054483;28;20025;-68
2022/10/25 10:34:28;;;;;;;67.72;33.58;;;25.60;61.20;;;;;;5053519;28;20183;-68
2022/10/25 10:37:13;;;;;;;87.70;40.60;;;25.40;61.90;;;;;;5053775;28;20032;-68
2022/10/25 10:39:57;;;;;;;103.43;43.53;;;25.60;63.30;;;;;;5032179;28;20084;-68
2022/10/25 10:42:36;;;;;;;98.53;45.90;;;25.80;63.60;;;;;;5048330;28;20025;-69
2022/10/25 10:45:08;;;;;;;108.30;46.17;;;25.80;62.90;;;;;;5051583;28;20035;-68
2022/10/25 10:47:36;;;;;;;112.80;45.15;;;25.90;62.40;;;;;;5052493;28;20063;-69
2022/10/25 10:50:26;;;;;;;100.22;44.00;;;25.80;62.60;;;;;;5053330;28;20028;-68
2022/10/25 10:52:57;;;;;;;94.38;45.70;;;26.00;61.00;;;;;;5051414;28;20021;-64
2022/10/25 10:55:34;;;;;;;104.00;44.05;;;25.80;62.80;;;;;;5051764;28;20036;-64
2022/10/25 10:58:31;;;;;;;109.88;45.88;;;25.90;62.30;;;;;;5054774;28;20100;-64
2022/10/25 11:00:59;;;;;;;90.47;40.95;;;26.10;62.70;;;;;;5052285;28;20123;-64
2022/10/25 11:03:39;;;;;;;97.78;40.97;;;26.30;62.10;;;;;;5053169;28;20029;-64
2022/10/25 11:06:12;;;;;;;105.18;40.90;;;26.30;62.10;;;;;;5036096;28;20120;-64
2022/10/25 11:08:39;;;;;;;85.90;38.70;;;26.20;61.90;;;;;;5055048;28;20025;-64
2022/10/25 11:11:19;;;;;;;83.68;37.70;;;26.10;60.90;;;;;;5056039;28;20189;-64
2022/10/25 11:13:59;;;;;;;93.85;39.05;;;25.90;61.70;;;;;;5056823;28;20100;-64
2022/10/25 11:16:47;;;;;;;71.75;33.92;;;25.50;64.00;;;;;;5072415;28;20113;-64
2022/10/25 11:19:30;;;;;;;70.82;32.08;;;25.50;62.80;;;;;;5065343;28;20413;-64
2022/10/25 11:22:46;;;;;;;77.00;30.83;;;25.30;62.10;;;;;;5056936;28;20036;-64
2022/10/25 11:25:31;;;;;;;69.07;31.85;;;25.20;63.50;;;;;;4976999;28;20108;-64
2022/10/25 11:28:27;;;;;;;77.00;32.38;;;24.90;65.40;;;;;;4993885;28;20034;-64
2022/10/25 11:31:05;;;;;;;70.50;32.63;;;25.20;64.70;;;;;;4990893;28;20047;-64
2022/10/25 11:33:43;;;;;;;66.65;31.40;;;25.10;65.50;;;;;;4993231;28;20153;-64
2022/10/25 11:36:22;;;;;;;70.70;32.47;;;25.30;65.10;;;;;;4994054;28;20431;-64
2022/10/25 11:39:24;;;;;;;68.35;30.35;;;25.90;63.60;;;;;;4994089;28;20046;-64
2022/10/25 11:41:57;;;;;;;66.47;30.30;;;26.10;61.80;;;;;;5007797;28;20066;-64
2022/10/25 11:45:08;;;;;;;77.60;30.33;;;26.30;61.20;;;;;;5001175;28;20038;-64
2022/10/25 11:47:38;;;;;;;;;;;26.30;62.00;;;;;;4996238;28;20026;-64
2022/10/25 11:50:31;;;;;;;60.97;29.60;;;26.80;59.50;;;;;;4992850;28;19917;-64
2022/10/25 11:53:22;;;;;;;59.58;27.15;;;26.70;58.90;;;;;;4992021;28;20101;-64
2022/10/25 11:56:07;;;;;;;65.63;29.67;;;27.30;59.30;;;;;;4988629;28;20041;-64
2022/10/25 11:58:51;;;;;;;80.80;33.75;;;27.40;57.60;;;;;;5006672;28;20095;-64
2022/10/25 12:02:00;;;;;;;63.90;28.63;;;27.50;57.80;;;;;;5054023;28;20152;-64
2022/10/25 12:04:52;;;;;;;61.10;28.23;;;26.90;58.90;;;;;;5052516;28;20040;-64
2022/10/25 12:07:21;;;;;;;65.90;29.13;;;26.80;58.60;;;;;;5054434;28;20474;-64
2022/10/25 12:10:05;;;;;;;68.50;29.98;;;26.80;58.30;;;;;;5052304;28;20458;-64
2022/10/25 12:12:48;;;;;;;57.85;28.48;;;26.90;59.30;;;;;;5053643;28;20032;-64
2022/10/25 12:15:34;;;;;;;57.78;28.35;;;27.00;59.10;;;;;;5054233;28;20035;-64
2022/10/25 12:18:00;;;;;;;60.10;28.42;;;27.10;58.10;;;;;;5055190;28;20047;-64
2022/10/25 12:20:28;;;;;;;52.88;28.15;;;27.00;58.70;;;;;;5054441;28;20017;-64
2022/10/25 12:22:58;;;;;;;56.72;26.92;;;27.50;58.50;;;;;;5067274;28;20458;-64
2022/10/25 12:25:32;;;;;;;59.15;28.42;;;27.80;57.40;;;;;;5075997;28;20363;-64
2022/10/25 12:28:28;;;;;;;58.67;26.95;;;27.50;57.10;;;;;;5075376;28;20024;-64
2022/10/25 12:31:08;;;;;;;61.67;29.25;;;27.40;56.80;;;;;;5064061;28;20386;-64
2022/10/25 12:33:39;;;;;;;57.53;26.55;;;27.00;57.60;;;;;;5047993;28;20033;-64
2022/10/25 12:36:29;;;;;;;53.53;26.15;;;27.00;58.00;;;;;;5051173;28;20675;-64
2022/10/25 12:38:59;;;;;;;58.42;25.52;;;26.80;58.60;;;;;;5054101;28;20485;-64
2022/10/25 12:41:31;;;;;;;56.70;25.75;;;26.60;58.10;;;;;;5053578;28;20075;-64
2022/10/25 12:44:34;;;;;;;49.47;21.63;;;26.10;59.60;;;;;;5049769;28;20495;-64
2022/10/25 12:47:28;;;;;;;62.70;24.00;;;25.90;60.20;;;;;;5059495;28;20033;-64
2022/10/25 12:50:01;;;;;;;42.75;21.42;;;25.80;61.30;;;;;;5048437;28;20466;-64
2022/10/25 12:52:32;;;;;;;42.55;19.77;;;26.00;61.20;;;;;;5054863;28;20028;-64
2022/10/25 12:55:25;;;;;;;38.53;18.40;;;26.30;61.40;;;;;;5051838;28;20035;-64
2022/10/25 12:58:06;;;;;;;42.10;20.48;;;26.60;60.80;;;;;;5043774;28;20360;-64